createdAt,value
2019-02-21T00:01:32.769Z,38.15
2019-02-21T00:04:01.273Z,40.20
2019-02-21T00:06:29.483Z,42.35
2019-02-21T00:08:57.712Z,39.00
2019-02-21T00:11:26.891Z,36.75
2019-02-21T00:13:55.201Z,41.48
2019-02-21T00:16:23.453Z,41.83
2019-02-21T00:18:51.678Z,40.23
2019-02-21T00:21:19.894Z,39.85
2019-02-21T00:23:48.123Z,38.80
2019-02-21T00:26:16.345Z,41.40
2019-02-21T00:28:44.578Z,38.40
2019-02-21T00:31:12.876Z,41.80
2019-02-21T00:33:41.139Z,39.53
2019-02-21T00:36:09.346Z,40.73
2019-02-21T00:38:37.587Z,40.03
2019-02-21T00:41:05.870Z,40.37
2019-02-21T00:43:34.121Z,42.13
2019-02-21T00:46:03.347Z,40.30
2019-02-21T00:48:31.583Z,35.90
2019-02-21T00:50:59.826Z,36.93
2019-02-21T00:53:28.053Z,40.75
2019-02-21T00:55:56.260Z,40.30
2019-02-21T00:58:25.435Z,37.45
2019-02-21T01:00:53.655Z,37.45
2019-02-21T01:03:21.871Z,39.50
2019-02-21T01:05:50.092Z,38.40
2019-02-21T01:08:18.313Z,42.90
2019-02-21T01:10:46.524Z,42.05
2019-02-21T01:13:14.744Z,36.33
2019-02-21T01:15:42.963Z,40.98
2019-02-21T01:18:11.264Z,42.27
2019-02-21T01:20:39.486Z,37.28
2019-02-21T01:23:07.710Z,39.25
2019-02-21T01:25:35.940Z,40.25
2019-02-21T01:28:04.244Z,39.00
2019-02-21T01:30:32.524Z,40.12
2019-02-21T01:33:00.760Z,37.53
2019-02-21T01:35:28.991Z,41.30
2019-02-21T01:37:57.234Z,42.53
2019-02-21T01:40:25.475Z,37.15
2019-02-21T01:42:54.681Z,38.77
2019-02-21T01:45:22.885Z,39.95
2019-02-21T01:47:51.095Z,42.67
2019-02-21T01:50:19.323Z,39.10
2019-02-21T01:52:47.531Z,43.02
2019-02-21T01:55:15.796Z,42.93
2019-02-21T01:57:44.131Z,36.60
2019-02-21T02:00:13.715Z,41.92
2019-02-21T02:02:42.011Z,37.23
2019-02-21T02:05:10.234Z,36.28
2019-02-21T02:07:38.535Z,40.48
2019-02-21T02:10:07.392Z,40.83
2019-02-21T02:12:35.636Z,39.80
2019-02-21T02:15:04.543Z,43.13
2019-02-21T02:17:32.833Z,38.98
2019-02-21T02:20:01.056Z,39.35
2019-02-21T02:22:29.279Z,38.88
2019-02-21T02:24:57.500Z,37.63
2019-02-21T02:27:25.724Z,37.50
2019-02-21T02:29:53.931Z,40.52
2019-02-21T02:32:22.150Z,34.45
2019-02-21T02:34:50.388Z,34.08
2019-02-21T02:37:18.618Z,37.98
2019-02-21T02:39:46.851Z,35.20
2019-02-21T02:42:15.056Z,35.92
2019-02-21T02:44:43.288Z,34.67
2019-02-21T02:47:11.504Z,29.82
2019-02-21T02:49:39.744Z,37.42
2019-02-21T02:52:07.965Z,33.87
2019-02-21T02:54:36.195Z,30.45
2019-02-21T02:57:04.403Z,31.02
2019-02-21T02:59:41.014Z,36.03
2019-02-21T03:02:02.544Z,34.08
2019-02-21T03:04:30.803Z,33.33
2019-02-21T03:06:59.055Z,31.90
2019-02-21T03:09:27.273Z,31.25
2019-02-21T03:11:55.495Z,32.95
2019-02-21T03:14:23.716Z,31.95
2019-02-21T03:16:51.961Z,33.28
2019-02-21T03:19:20.160Z,31.68
2019-02-21T03:21:48.387Z,34.20
2019-02-21T03:24:16.607Z,32.73
2019-02-21T03:26:44.847Z,31.07
2019-02-21T03:29:13.069Z,33.27
2019-02-21T03:31:53.420Z,35.38
2019-02-21T03:34:11.276Z,34.38
2019-02-21T03:36:39.515Z,37.33
2019-02-21T03:39:08.174Z,37.63
2019-02-21T03:41:36.519Z,39.20
2019-02-21T03:44:04.731Z,34.78
2019-02-21T03:46:32.983Z,34.58
2019-02-21T03:49:01.208Z,36.98
2019-02-21T03:51:29.431Z,34.10
2019-02-21T03:53:57.655Z,34.63
2019-02-21T03:56:25.888Z,35.45
2019-02-21T03:58:54.098Z,36.03
2019-02-21T04:01:22.327Z,40.35
2019-02-21T04:03:50.543Z,36.40
2019-02-21T04:06:18.803Z,41.25
2019-02-21T04:08:47.027Z,41.13
2019-02-21T04:11:15.264Z,36.17
2019-02-21T04:13:43.479Z,37.00
2019-02-21T04:16:11.712Z,43.33
2019-02-21T04:18:39.945Z,38.15
2019-02-21T04:21:08.180Z,36.40
2019-02-21T04:23:36.463Z,40.00
2019-02-21T04:26:04.742Z,44.23
2019-02-21T04:28:34.045Z,40.13
2019-02-21T04:31:02.275Z,38.88
2019-02-21T04:33:30.506Z,36.80
2019-02-21T04:35:58.790Z,44.77
2019-02-21T04:38:27.016Z,41.65
2019-02-21T04:40:55.312Z,39.92
2019-02-21T04:43:23.581Z,40.23
2019-02-21T04:45:51.801Z,38.57
2019-02-21T04:48:20.014Z,40.55
2019-02-21T04:50:48.290Z,44.80
2019-02-21T04:53:16.610Z,35.60
2019-02-21T04:55:44.820Z,36.42
2019-02-21T04:58:13.031Z,40.83
2019-02-21T05:00:41.611Z,40.85
2019-02-21T05:03:09.919Z,40.95
2019-02-21T05:05:38.168Z,43.97
2019-02-21T05:08:06.511Z,39.95
2019-02-21T05:10:34.727Z,42.83
2019-02-21T05:13:03.006Z,37.23
2019-02-21T05:15:31.231Z,39.08
2019-02-21T05:17:59.463Z,38.00
2019-02-21T05:20:27.743Z,37.83
2019-02-21T05:22:56.118Z,37.30
2019-02-21T05:25:24.378Z,39.15
2019-02-21T05:28:10.767Z,36.40
2019-02-21T05:30:39.059Z,39.20
2019-02-21T05:33:35.747Z,39.53
2019-02-21T05:36:22.200Z,33.92
2019-02-21T05:38:57.645Z,39.18
2019-02-21T05:42:03.367Z,39.15
2019-02-21T05:44:41.115Z,42.58
2019-02-21T05:47:28.523Z,42.05
2019-02-21T05:50:09.606Z,37.03
2019-02-21T05:52:50.891Z,39.88
2019-02-21T05:55:41.192Z,41.48
2019-02-21T05:58:14.151Z,41.97
2019-02-21T06:01:00.391Z,39.50
2019-02-21T06:03:46.558Z,45.58
2019-02-21T06:06:33.362Z,37.50
2019-02-21T06:09:13.434Z,44.23
2019-02-21T06:12:00.083Z,39.80
2019-02-21T06:14:42.445Z,39.18
2019-02-21T06:17:24.646Z,38.47
2019-02-21T06:20:10.865Z,41.83
2019-02-21T06:22:46.297Z,41.58
2019-02-21T06:25:30.180Z,42.15
2019-02-21T06:28:23.431Z,40.75
2019-02-21T06:30:58.015Z,47.30
2019-02-21T06:33:28.275Z,48.55
2019-02-21T06:35:56.178Z,41.92
2019-02-21T06:38:24.479Z,46.28
2019-02-21T06:40:52.708Z,44.73
2019-02-21T06:43:21.138Z,48.07
2019-02-21T06:45:49.399Z,46.23
2019-02-21T06:48:17.615Z,46.73
2019-02-21T06:50:47.591Z,42.88
2019-02-21T06:53:15.819Z,41.53
2019-02-21T06:55:44.031Z,44.65
2019-02-21T06:58:12.263Z,44.98
2019-02-21T07:00:40.542Z,47.60
2019-02-21T07:03:15.727Z,47.00
2019-02-21T07:05:40.763Z,46.65
2019-02-21T07:08:09.056Z,47.80
2019-02-21T07:10:37.290Z,48.58
2019-02-21T07:13:05.515Z,42.67
2019-02-21T07:15:33.743Z,41.30
2019-02-21T07:18:02.026Z,48.33
2019-02-21T07:20:30.234Z,42.85
2019-02-21T07:22:58.475Z,44.00
2019-02-21T07:25:55.128Z,45.35
2019-02-21T07:28:23.343Z,41.77
2019-02-21T07:30:52.518Z,41.90
2019-02-21T07:33:28.409Z,44.40
2019-02-21T07:35:50.782Z,48.78
2019-02-21T07:38:18.988Z,42.75
2019-02-21T07:40:47.215Z,44.55
2019-02-21T07:43:15.432Z,40.00
2019-02-21T07:45:43.691Z,43.50
2019-02-21T07:48:11.906Z,43.75
2019-02-21T07:50:40.127Z,49.70
2019-02-21T07:53:08.335Z,41.42
2019-02-21T07:55:36.588Z,45.38
2019-02-21T07:58:04.855Z,46.63
2019-02-21T08:00:33.143Z,50.30
2019-02-21T08:03:01.347Z,46.33
2019-02-21T08:05:29.631Z,51.50
2019-02-21T08:07:57.835Z,52.53
2019-02-21T08:10:33.702Z,52.45
2019-02-21T08:12:57.018Z,48.48
2019-02-21T08:15:27.571Z,49.20
2019-02-21T08:17:55.151Z,53.68
2019-02-21T08:20:33.680Z,48.20
2019-02-21T08:22:53.308Z,54.18
2019-02-21T08:25:21.531Z,47.55
2019-02-21T08:27:49.743Z,45.30
2019-02-21T08:30:17.956Z,46.70
2019-02-21T08:33:17.335Z,48.60
2019-02-21T08:35:45.545Z,47.30
2019-02-21T08:38:14.835Z,47.58
2019-02-21T08:40:43.048Z,46.18
2019-02-21T08:43:11.256Z,45.00
2019-02-21T08:45:39.487Z,43.87
2019-02-21T08:48:07.697Z,43.68
2019-02-21T08:50:36.992Z,46.85
2019-02-21T08:53:05.231Z,43.10
2019-02-21T08:55:33.441Z,43.63
2019-02-21T08:58:01.647Z,37.55
2019-02-21T09:00:31.596Z,47.53
2019-02-21T09:02:59.835Z,41.88
2019-02-21T09:05:29.031Z,37.93
2019-02-21T09:07:57.239Z,41.53
2019-02-21T09:10:27.568Z,42.13
2019-02-21T09:12:55.372Z,42.25
2019-02-21T09:15:23.575Z,44.30
2019-02-21T09:17:54.046Z,42.33
2019-02-21T09:20:21.695Z,39.53
2019-02-21T09:22:49.922Z,43.95
2019-02-21T09:25:18.132Z,40.33
2019-02-21T09:27:46.355Z,37.70
2019-02-21T09:30:15.359Z,37.90
2019-02-21T09:32:43.575Z,42.33
2019-02-21T09:35:11.858Z,41.30
2019-02-21T09:37:40.189Z,38.40
2019-02-21T09:40:10.789Z,37.75
2019-02-21T09:42:39.330Z,36.95
2019-02-21T09:45:16.756Z,43.33
2019-02-21T09:47:44.956Z,39.65
2019-02-21T09:50:13.351Z,38.23
2019-02-21T09:52:41.571Z,45.30
2019-02-21T09:55:10.711Z,38.50
2019-02-21T09:57:39.990Z,47.53
2019-02-21T10:00:18.125Z,43.75
2019-02-21T10:02:46.340Z,44.63
2019-02-21T10:05:14.627Z,41.68
2019-02-21T10:07:42.943Z,40.80
2019-02-21T10:10:12.248Z,42.23
2019-02-21T10:12:40.463Z,45.85
2019-02-21T10:15:08.896Z,44.27
2019-02-21T10:17:37.099Z,44.42
2019-02-21T10:20:06.586Z,45.38
2019-02-21T10:22:34.819Z,40.45
2019-02-21T10:25:03.112Z,39.20
2019-02-21T10:27:31.319Z,41.40
2019-02-21T10:29:59.543Z,40.12
2019-02-21T10:32:27.775Z,41.77
2019-02-21T10:34:55.979Z,39.33
2019-02-21T10:37:24.217Z,41.40
2019-02-21T10:39:52.432Z,41.50
2019-02-21T10:42:20.638Z,44.77
2019-02-21T10:44:48.852Z,43.75
2019-02-21T10:47:17.122Z,44.85
2019-02-21T10:49:45.352Z,45.70
2019-02-21T10:52:13.583Z,44.10
2019-02-21T10:54:42.609Z,41.88
2019-02-21T10:57:10.924Z,40.92
2019-02-21T10:59:46.612Z,41.77
2019-02-21T11:02:09.072Z,48.08
2019-02-21T11:04:37.331Z,43.42
2019-02-21T11:07:05.657Z,46.35
2019-02-21T11:09:33.876Z,48.08
2019-02-21T11:12:02.077Z,47.53
2019-02-21T11:14:30.282Z,49.18
2019-02-21T11:16:58.500Z,46.42
2019-02-21T11:19:27.687Z,47.20
2019-02-21T11:21:55.892Z,44.35
2019-02-21T11:24:25.275Z,52.80
2019-02-21T11:26:53.482Z,45.97
2019-02-21T11:29:21.703Z,45.52
2019-02-21T11:31:49.914Z,51.40
2019-02-21T11:34:18.131Z,53.53
2019-02-21T11:36:46.335Z,46.60
2019-02-21T11:39:14.574Z,48.98
2019-02-21T11:41:42.844Z,46.67
2019-02-21T11:44:11.060Z,45.30
2019-02-21T11:46:39.275Z,46.37
2019-02-21T11:49:07.780Z,48.55
2019-02-21T11:51:35.987Z,44.25
2019-02-21T11:54:04.286Z,48.80
2019-02-21T11:56:33.472Z,45.63
2019-02-21T11:59:01.674Z,46.15
2019-02-21T12:01:29.884Z,49.25
2019-02-21T12:03:58.098Z,44.55
2019-02-21T12:06:26.299Z,51.42
2019-02-21T12:08:55.486Z,49.05
2019-02-21T12:11:23.691Z,46.30
2019-02-21T12:13:51.984Z,42.88
2019-02-21T12:16:20.196Z,40.78
2019-02-21T12:18:48.426Z,47.15
2019-02-21T12:21:16.615Z,46.10
2019-02-21T12:23:44.967Z,52.10
2019-02-21T12:26:14.174Z,48.00
2019-02-21T12:28:44.042Z,40.78
2019-02-21T12:31:12.251Z,48.70
2019-02-21T12:33:40.475Z,40.95
2019-02-21T12:36:08.682Z,39.48
2019-02-21T12:38:37.003Z,42.45
2019-02-21T12:41:05.213Z,42.80
2019-02-21T12:43:33.426Z,38.17
2019-02-21T12:46:01.707Z,44.48
2019-02-21T12:48:30.019Z,43.68
2019-02-21T12:50:58.228Z,41.75
2019-02-21T12:53:28.170Z,41.02
2019-02-21T12:55:56.366Z,38.30
2019-02-21T12:58:24.659Z,41.80
2019-02-21T13:00:52.937Z,42.48
2019-02-21T13:03:21.138Z,44.25
2019-02-21T13:05:49.355Z,43.83
2019-02-21T13:08:18.668Z,48.25
2019-02-21T13:10:46.891Z,44.23
2019-02-21T13:13:15.134Z,39.83
2019-02-21T13:15:43.401Z,38.95
2019-02-21T13:18:15.993Z,39.27
2019-02-21T13:20:41.599Z,39.00
2019-02-21T13:23:09.823Z,42.45
2019-02-21T13:25:38.151Z,43.60
2019-02-21T13:28:06.399Z,37.98
2019-02-21T13:30:34.638Z,40.98
2019-02-21T13:33:02.868Z,40.00
2019-02-21T13:35:31.105Z,37.58
2019-02-21T13:37:59.316Z,42.73
2019-02-21T13:40:27.597Z,48.05
2019-02-21T13:42:55.875Z,38.40
2019-02-21T13:45:24.107Z,42.50
2019-02-21T13:47:52.428Z,38.78
2019-02-21T13:50:20.644Z,42.60
2019-02-21T13:52:48.860Z,38.93
2019-02-21T13:55:17.221Z,36.45
2019-02-21T13:57:45.526Z,38.92
2019-02-21T14:00:14.903Z,37.03
2019-02-21T14:02:43.117Z,35.40
2019-02-21T14:05:12.312Z,36.28
2019-02-21T14:07:40.528Z,35.92
2019-02-21T14:10:09.114Z,36.10
2019-02-21T14:12:37.323Z,37.25
2019-02-21T14:15:06.339Z,33.53
2019-02-21T14:17:34.564Z,36.63
2019-02-21T14:20:02.779Z,39.00
2019-02-21T14:22:30.996Z,38.10
2019-02-21T14:24:59.230Z,33.65
2019-02-21T14:27:27.452Z,34.23
2019-02-21T14:29:55.658Z,31.62
2019-02-21T14:32:23.871Z,36.63
2019-02-21T14:34:52.091Z,36.23
2019-02-21T14:37:20.304Z,31.62
2019-02-21T14:39:48.533Z,36.53
2019-02-21T14:42:16.772Z,35.27
2019-02-21T14:44:44.967Z,40.48
2019-02-21T14:47:13.196Z,37.95
2019-02-21T14:49:41.430Z,37.83
2019-02-21T14:52:09.636Z,33.95
2019-02-21T14:54:38.174Z,34.98
2019-02-21T14:57:06.448Z,38.73
2019-02-21T14:59:34.651Z,38.30
2019-02-21T15:02:06.047Z,36.45
2019-02-21T15:04:33.856Z,40.03
2019-02-21T15:07:06.521Z,38.95
2019-02-21T15:09:34.303Z,40.38
2019-02-21T15:12:02.552Z,42.70
2019-02-21T15:14:30.803Z,52.93
2019-02-21T15:16:59.030Z,83.63
2019-02-21T15:19:27.244Z,54.95
2019-02-21T15:21:55.468Z,55.15
2019-02-21T15:24:23.704Z,51.25
2019-02-21T15:26:51.918Z,46.37
2019-02-21T15:29:20.128Z,53.98
2019-02-21T15:31:48.363Z,48.92
2019-02-21T15:34:16.577Z,48.80
2019-02-21T15:36:44.788Z,50.97
2019-02-21T15:39:13.001Z,50.50
2019-02-21T15:41:41.244Z,59.88
2019-02-21T15:44:09.455Z,53.13
2019-02-21T15:46:37.674Z,55.78
2019-02-21T15:49:05.900Z,53.95
2019-02-21T15:51:34.119Z,53.35
2019-02-21T15:54:02.326Z,49.45
2019-02-21T15:56:30.570Z,49.10
2019-02-21T15:58:58.775Z,56.18
2019-02-21T16:01:26.996Z,53.33
2019-02-21T16:03:55.199Z,52.57
2019-02-21T16:06:23.436Z,53.58
2019-02-21T16:08:51.731Z,43.92
2019-02-21T16:11:19.972Z,48.67
2019-02-21T16:13:48.463Z,48.85
2019-02-21T16:16:17.758Z,49.50
2019-02-21T16:18:46.163Z,46.15
2019-02-21T16:21:14.407Z,51.75
2019-02-21T16:23:42.640Z,50.48
2019-02-21T16:26:10.905Z,46.30
2019-02-21T16:28:39.163Z,53.92
2019-02-21T16:31:07.373Z,55.05
2019-02-21T16:33:35.758Z,50.55
2019-02-21T16:36:03.962Z,52.67
2019-02-21T16:38:32.286Z,50.67
2019-02-21T16:41:00.492Z,50.05
2019-02-21T16:43:28.695Z,53.80
2019-02-21T16:46:07.192Z,52.95
2019-02-21T16:48:26.819Z,57.30
2019-02-21T16:50:55.029Z,51.33
2019-02-21T16:53:23.247Z,52.38
2019-02-21T16:55:51.459Z,52.38
2019-02-21T16:58:19.687Z,54.65
2019-02-21T17:00:54.761Z,59.43
2019-02-21T17:03:17.907Z,55.98
2019-02-21T17:05:46.127Z,58.02
2019-02-21T17:08:14.335Z,57.70
2019-02-21T17:10:42.551Z,64.15
2019-02-21T17:13:10.775Z,60.00
2019-02-21T17:15:38.986Z,62.53
2019-02-21T17:18:07.211Z,61.80
2019-02-21T17:20:35.507Z,61.95
2019-02-21T17:23:03.731Z,58.80
2019-02-21T17:25:31.967Z,55.08
2019-02-21T17:28:00.191Z,55.17
2019-02-21T17:30:28.398Z,64.17
2019-02-21T17:32:56.626Z,48.23
2019-02-21T17:35:24.831Z,50.78
2019-02-21T17:37:53.054Z,51.53
2019-02-21T17:40:21.351Z,55.23
2019-02-21T17:42:49.569Z,44.40
2019-02-21T17:45:17.807Z,45.40
2019-02-21T17:47:46.076Z,46.40
2019-02-21T17:50:14.680Z,49.48
2019-02-21T17:52:42.910Z,52.70
2019-02-21T17:55:11.272Z,48.25
2019-02-21T17:57:39.659Z,50.12
2019-02-21T18:00:10.028Z,49.18
2019-02-21T18:02:38.631Z,51.23
2019-02-21T18:05:07.214Z,52.85
2019-02-21T18:07:36.709Z,53.00
2019-02-21T18:10:05.732Z,56.80
2019-02-21T18:12:33.949Z,59.27
2019-02-21T18:15:02.171Z,57.40
2019-02-21T18:17:30.454Z,56.65
2019-02-21T18:19:58.672Z,60.85
2019-02-21T18:22:26.902Z,67.62
2019-02-21T18:24:55.127Z,71.35
2019-02-21T18:27:23.352Z,62.43
2019-02-21T18:29:51.559Z,63.30
2019-02-21T18:32:19.836Z,66.67
2019-02-21T18:34:49.537Z,67.78
2019-02-21T18:37:17.854Z,64.17
2019-02-21T18:39:46.087Z,67.90
2019-02-21T18:42:14.291Z,78.30
2019-02-21T18:44:42.514Z,70.95
2019-02-21T18:47:10.726Z,75.57
2019-02-21T18:49:38.942Z,76.77
2019-02-21T18:52:07.168Z,74.00
2019-02-21T18:54:35.383Z,83.00
2019-02-21T18:57:03.584Z,87.08
2019-02-21T18:59:32.137Z,82.20
2019-02-21T19:02:00.397Z,85.20
2019-02-21T19:04:28.610Z,90.65
2019-02-21T19:06:57.803Z,92.78
2019-02-21T19:09:26.148Z,90.85
2019-02-21T19:11:54.422Z,98.12
2019-02-21T19:14:22.632Z,87.67
2019-02-21T19:16:50.851Z,96.17
2019-02-21T19:19:19.070Z,101.58
2019-02-21T19:21:47.315Z,104.67
2019-02-21T19:24:15.527Z,94.03
2019-02-21T19:26:43.755Z,103.05
2019-02-21T19:29:11.977Z,108.72
2019-02-21T19:31:40.287Z,107.57
2019-02-21T19:34:08.503Z,107.00
2019-02-21T19:36:36.732Z,104.78
2019-02-21T19:39:05.524Z,108.75
2019-02-21T19:41:35.092Z,117.50
2019-02-21T19:44:08.848Z,107.22
2019-02-21T19:46:33.299Z,114.15
2019-02-21T19:49:01.522Z,108.30
2019-02-21T19:51:30.928Z,108.85
2019-02-21T19:54:00.139Z,112.85
2019-02-21T19:56:28.524Z,115.57
2019-02-21T19:58:57.023Z,109.37
2019-02-21T20:01:25.253Z,109.85
2019-02-21T20:03:53.575Z,114.53
2019-02-21T20:06:21.856Z,119.37
2019-02-21T20:08:50.063Z,110.30
2019-02-21T20:11:18.299Z,118.13
2019-02-21T20:13:46.507Z,115.75
2019-02-21T20:16:14.731Z,116.08
2019-02-21T20:18:42.955Z,117.97
2019-02-21T20:21:11.177Z,128.40
2019-02-21T20:23:39.403Z,118.35
2019-02-21T20:26:17.698Z,134.20
2019-02-21T20:28:37.632Z,127.53
2019-02-21T20:31:05.866Z,129.97
2019-02-21T20:33:34.134Z,131.05
2019-02-21T20:36:02.344Z,133.93
2019-02-21T20:38:32.325Z,134.12
2019-02-21T20:41:00.668Z,141.00
2019-02-21T20:43:28.895Z,141.32
2019-02-21T20:45:57.254Z,136.10
2019-02-21T20:48:25.482Z,128.07
2019-02-21T20:50:56.820Z,140.65
2019-02-21T20:53:23.659Z,140.80
2019-02-21T20:55:51.883Z,138.20
2019-02-21T20:58:20.127Z,140.00
2019-02-21T21:00:48.427Z,138.30
2019-02-21T21:03:17.788Z,137.20
2019-02-21T21:05:46.314Z,136.88
2019-02-21T21:08:14.547Z,138.07
2019-02-21T21:10:42.770Z,141.67
2019-02-21T21:13:11.063Z,138.97
2019-02-21T21:15:39.653Z,134.22
2019-02-21T21:18:08.029Z,133.45
2019-02-21T21:20:36.296Z,131.93
2019-02-21T21:23:04.604Z,123.80
2019-02-21T21:25:33.820Z,128.45
2019-02-21T21:28:02.253Z,119.55
2019-02-21T21:30:30.544Z,119.47
2019-02-21T21:32:58.783Z,114.17
2019-02-21T21:35:27.074Z,112.22
2019-02-21T21:37:55.303Z,112.32
2019-02-21T21:40:23.610Z,106.77
2019-02-21T21:42:51.904Z,112.65
2019-02-21T21:45:20.187Z,104.03
2019-02-21T21:47:48.423Z,104.63
2019-02-21T21:50:16.848Z,101.60
2019-02-21T21:52:45.106Z,103.30
2019-02-21T21:55:14.684Z,100.55
2019-02-21T21:57:43.082Z,105.33
2019-02-21T22:00:12.811Z,99.47
2019-02-21T22:02:44.719Z,103.13
2019-02-21T22:05:13.322Z,100.15
2019-02-21T22:07:44.485Z,103.45
2019-02-21T22:10:12.941Z,96.28
2019-02-21T22:12:43.296Z,92.53
2019-02-21T22:15:11.888Z,91.07
2019-02-21T22:17:42.286Z,89.40
2019-02-21T22:20:10.691Z,89.63
2019-02-21T22:22:39.103Z,92.20
2019-02-21T22:25:07.930Z,90.45
2019-02-21T22:27:36.404Z,86.17
2019-02-21T22:30:04.919Z,83.90
2019-02-21T22:32:33.155Z,76.13
2019-02-21T22:35:01.440Z,89.32
2019-02-21T22:37:29.764Z,83.30
2019-02-21T22:39:57.975Z,86.00
2019-02-21T22:42:26.207Z,79.72
2019-02-21T22:44:54.412Z,79.45
2019-02-21T22:47:22.674Z,78.83
2019-02-21T22:49:50.904Z,83.82
2019-02-21T22:52:20.117Z,86.78
2019-02-21T22:54:48.328Z,84.45
2019-02-21T22:57:16.543Z,86.90
2019-02-21T22:59:44.767Z,86.32
2019-02-21T23:02:13.246Z,84.80
2019-02-21T23:05:00.722Z,83.82
2019-02-21T23:07:35.521Z,87.45
2019-02-21T23:10:03.912Z,85.17
2019-02-21T23:12:33.747Z,86.40
2019-02-21T23:15:01.975Z,83.42
2019-02-21T23:17:30.343Z,84.00
2019-02-21T23:19:58.560Z,79.85
2019-02-21T23:22:26.849Z,81.37
2019-02-21T23:24:55.069Z,77.90
2019-02-21T23:27:23.283Z,77.47
2019-02-21T23:29:51.498Z,76.12
2019-02-21T23:32:19.679Z,74.80
2019-02-21T23:34:47.907Z,74.58
2019-02-21T23:37:16.107Z,74.37
2019-02-21T23:39:44.799Z,75.12
2019-02-21T23:42:13.000Z,70.28
2019-02-21T23:44:41.222Z,71.33
2019-02-21T23:47:09.432Z,68.15
2019-02-21T23:49:37.651Z,65.67
2019-02-21T23:52:05.866Z,65.87
2019-02-21T23:54:34.071Z,63.38
2019-02-21T23:57:02.279Z,67.00
2019-02-21T23:59:30.498Z,65.30
